sensor_id;sensor_type;location;lat;lon;timestamp;P1;durP1;ratioP1;P2;durP2;ratioP2
46022;SDS011;31756;47.936;16.224;2023-06-10T00:01:00;5.30;;;4.80;;
46022;SDS011;31756;47.936;16.224;2023-06-10T00:03:26;4.93;;;4.43;;
46022;SDS011;31756;47.936;16.224;2023-06-10T00:05:51;5.57;;;5.18;;
46022;SDS011;31756;47.936;16.224;2023-06-10T00:08:17;4.57;;;4.15;;
46022;SDS011;31756;47.936;16.224;2023-06-10T00:10:44;5.82;;;5.22;;
46022;SDS011;31756;47.936;16.224;2023-06-10T00:13:10;6.20;;;4.82;;
46022;SDS011;31756;47.936;16.224;2023-06-10T00:15:36;5.47;;;4.97;;
46022;SDS011;31756;47.936;16.224;2023-06-10T00:18:02;4.90;;;4.50;;
46022;SDS011;31756;47.936;16.224;2023-06-10T00:20:29;4.80;;;4.40;;
46022;SDS011;31756;47.936;16.224;2023-06-10T00:22:55;6.10;;;5.50;;
46022;SDS011;31756;47.936;16.224;2023-06-10T00:25:22;4.90;;;4.50;;
46022;SDS011;31756;47.936;16.224;2023-06-10T00:27:47;505.47;;;452.93;;
46022;SDS011;31756;47.936;16.224;2023-06-10T00:30:13;459.30;;;407.07;;
46022;SDS011;31756;47.936;16.224;2023-06-10T00:32:38;456.50;;;368.90;;
46022;SDS011;31756;47.936;16.224;2023-06-10T00:35:04;429.73;;;347.07;;
46022;SDS011;31756;47.936;16.224;2023-06-10T00:37:30;430.13;;;342.37;;
46022;SDS011;31756;47.936;16.224;2023-06-10T00:39:57;414.13;;;320.80;;
46022;SDS011;31756;47.936;16.224;2023-06-10T00:42:22;411.17;;;324.37;;
46022;SDS011;31756;47.936;16.224;2023-06-10T00:44:50;440.97;;;380.83;;
46022;SDS011;31756;47.936;16.224;2023-06-10T00:47:15;434.37;;;366.23;;
46022;SDS011;31756;47.936;16.224;2023-06-10T00:49:41;439.70;;;379.70;;
46022;SDS011;31756;47.936;16.224;2023-06-10T00:52:06;443.17;;;390.83;;
46022;SDS011;31756;47.936;16.224;2023-06-10T00:54:33;444.73;;;388.90;;
46022;SDS011;31756;47.936;16.224;2023-06-10T00:57:00;478.67;;;427.70;;
46022;SDS011;31756;47.936;16.224;2023-06-10T00:59:25;484.83;;;432.30;;
46022;SDS011;31756;47.936;16.224;2023-06-10T01:01:51;590.00;;;533.70;;
46022;SDS011;31756;47.936;16.224;2023-06-10T01:04:17;466.17;;;415.37;;
46022;SDS011;31756;47.936;16.224;2023-06-10T01:06:54;484.57;;;433.90;;
46022;SDS011;31756;47.936;16.224;2023-06-10T01:14:22;505.20;;;453.93;;
46022;SDS011;31756;47.936;16.224;2023-06-10T01:16:47;522.30;;;470.33;;
46022;SDS011;31756;47.936;16.224;2023-06-10T01:19:13;528.80;;;476.07;;
46022;SDS011;31756;47.936;16.224;2023-06-10T01:21:40;533.83;;;480.93;;
46022;SDS011;31756;47.936;16.224;2023-06-10T01:24:05;531.23;;;478.73;;
46022;SDS011;31756;47.936;16.224;2023-06-10T01:26:33;542.93;;;489.83;;
46022;SDS011;31756;47.936;16.224;2023-06-10T01:29:03;562.27;;;508.90;;
46022;SDS011;31756;47.936;16.224;2023-06-10T01:31:52;555.37;;;501.77;;
46022;SDS011;31756;47.936;16.224;2023-06-10T01:34:16;548.17;;;494.80;;
46022;SDS011;31756;47.936;16.224;2023-06-10T01:36:44;546.27;;;492.87;;
46022;SDS011;31756;47.936;16.224;2023-06-10T01:39:11;537.27;;;484.17;;
46022;SDS011;31756;47.936;16.224;2023-06-10T01:41:37;545.63;;;492.53;;
46022;SDS011;31756;47.936;16.224;2023-06-10T01:44:03;546.30;;;492.63;;
46022;SDS011;31756;47.936;16.224;2023-06-10T01:46:29;571.83;;;518.47;;
46022;SDS011;31756;47.936;16.224;2023-06-10T01:48:55;542.83;;;490.13;;
46022;SDS011;31756;47.936;16.224;2023-06-10T01:51:20;544.50;;;491.83;;
46022;SDS011;31756;47.936;16.224;2023-06-10T01:53:46;557.57;;;504.33;;
46022;SDS011;31756;47.936;16.224;2023-06-10T01:56:12;571.53;;;517.83;;
46022;SDS011;31756;47.936;16.224;2023-06-10T01:58:43;565.90;;;512.57;;
46022;SDS011;31756;47.936;16.224;2023-06-10T02:01:09;553.33;;;500.17;;
46022;SDS011;31756;47.936;16.224;2023-06-10T02:03:36;564.80;;;511.43;;
46022;SDS011;31756;47.936;16.224;2023-06-10T02:06:01;560.27;;;506.87;;
46022;SDS011;31756;47.936;16.224;2023-06-10T02:08:27;574.50;;;520.80;;
46022;SDS011;31756;47.936;16.224;2023-06-10T02:10:52;561.77;;;508.47;;
46022;SDS011;31756;47.936;16.224;2023-06-10T02:13:18;570.23;;;516.73;;
46022;SDS011;31756;47.936;16.224;2023-06-10T02:15:44;555.83;;;502.80;;
46022;SDS011;31756;47.936;16.224;2023-06-10T02:18:10;571.70;;;518.37;;
46022;SDS011;31756;47.936;16.224;2023-06-10T02:20:40;586.73;;;532.87;;
46022;SDS011;31756;47.936;16.224;2023-06-10T02:23:05;572.83;;;519.03;;
46022;SDS011;31756;47.936;16.224;2023-06-10T02:25:31;558.97;;;505.73;;
46022;SDS011;31756;47.936;16.224;2023-06-10T02:27:57;550.83;;;497.40;;
46022;SDS011;31756;47.936;16.224;2023-06-10T02:30:24;549.00;;;495.90;;
46022;SDS011;31756;47.936;16.224;2023-06-10T02:32:49;550.33;;;497.13;;
46022;SDS011;31756;47.936;16.224;2023-06-10T02:35:17;542.60;;;489.80;;
46022;SDS011;31756;47.936;16.224;2023-06-10T02:37:43;558.50;;;505.50;;
46022;SDS011;31756;47.936;16.224;2023-06-10T02:40:09;558.70;;;505.67;;
46022;SDS011;31756;47.936;16.224;2023-06-10T02:42:37;569.40;;;516.00;;
46022;SDS011;31756;47.936;16.224;2023-06-10T02:45:03;554.47;;;501.17;;
46022;SDS011;31756;47.936;16.224;2023-06-10T02:47:37;560.97;;;507.63;;
46022;SDS011;31756;47.936;16.224;2023-06-10T02:50:03;562.73;;;509.33;;
46022;SDS011;31756;47.936;16.224;2023-06-10T02:52:31;562.03;;;508.63;;
46022;SDS011;31756;47.936;16.224;2023-06-10T02:54:57;614.00;;;559.43;;
46022;SDS011;31756;47.936;16.224;2023-06-10T02:57:22;601.23;;;547.07;;
46022;SDS011;31756;47.936;16.224;2023-06-10T02:59:48;598.17;;;543.93;;
46022;SDS011;31756;47.936;16.224;2023-06-10T03:02:14;600.13;;;546.17;;
46022;SDS011;31756;47.936;16.224;2023-06-10T03:04:45;614.47;;;559.83;;
46022;SDS011;31756;47.936;16.224;2023-06-10T03:07:14;599.03;;;544.43;;
46022;SDS011;31756;47.936;16.224;2023-06-10T03:09:40;594.00;;;539.73;;
46022;SDS011;31756;47.936;16.224;2023-06-10T03:12:09;594.83;;;540.57;;
46022;SDS011;31756;47.936;16.224;2023-06-10T03:14:42;601.10;;;546.60;;
46022;SDS011;31756;47.936;16.224;2023-06-10T03:17:08;596.67;;;542.53;;
46022;SDS011;31756;47.936;16.224;2023-06-10T03:19:37;588.67;;;534.77;;
46022;SDS011;31756;47.936;16.224;2023-06-10T03:22:13;616.87;;;562.10;;
46022;SDS011;31756;47.936;16.224;2023-06-10T03:24:57;583.17;;;529.27;;
46022;SDS011;31756;47.936;16.224;2023-06-10T03:27:25;592.87;;;538.40;;
46022;SDS011;31756;47.936;16.224;2023-06-10T03:29:54;599.33;;;545.13;;
46022;SDS011;31756;47.936;16.224;2023-06-10T03:32:19;626.30;;;571.30;;
46022;SDS011;31756;47.936;16.224;2023-06-10T03:34:45;602.73;;;548.30;;
46022;SDS011;31756;47.936;16.224;2023-06-10T03:37:13;600.87;;;546.20;;
46022;SDS011;31756;47.936;16.224;2023-06-10T03:39:41;612.47;;;557.97;;
46022;SDS011;31756;47.936;16.224;2023-06-10T03:42:07;619.33;;;564.47;;
46022;SDS011;31756;47.936;16.224;2023-06-10T03:44:32;627.23;;;572.37;;
46022;SDS011;31756;47.936;16.224;2023-06-10T03:46:59;618.23;;;563.40;;
46022;SDS011;31756;47.936;16.224;2023-06-10T03:49:25;624.47;;;569.27;;
46022;SDS011;31756;47.936;16.224;2023-06-10T03:51:56;620.27;;;565.43;;
46022;SDS011;31756;47.936;16.224;2023-06-10T03:54:21;637.60;;;582.17;;
46022;SDS011;31756;47.936;16.224;2023-06-10T03:56:47;619.50;;;564.80;;
46022;SDS011;31756;47.936;16.224;2023-06-10T03:59:16;629.43;;;574.23;;
46022;SDS011;31756;47.936;16.224;2023-06-10T04:01:42;639.00;;;583.60;;
46022;SDS011;31756;47.936;16.224;2023-06-10T04:04:09;622.97;;;568.10;;
46022;SDS011;31756;47.936;16.224;2023-06-10T04:06:34;640.10;;;585.07;;
46022;SDS011;31756;47.936;16.224;2023-06-10T04:08:59;645.30;;;589.70;;
46022;SDS011;31756;47.936;16.224;2023-06-10T04:11:27;627.73;;;572.63;;
46022;SDS011;31756;47.936;16.224;2023-06-10T04:13:52;631.20;;;576.10;;
46022;SDS011;31756;47.936;16.224;2023-06-10T04:16:18;627.23;;;572.10;;
46022;SDS011;31756;47.936;16.224;2023-06-10T04:18:46;627.37;;;572.10;;
46022;SDS011;31756;47.936;16.224;2023-06-10T04:21:11;636.93;;;581.67;;
46022;SDS011;31756;47.936;16.224;2023-06-10T04:23:37;637.60;;;582.27;;
46022;SDS011;31756;47.936;16.224;2023-06-10T04:26:04;643.93;;;588.47;;
46022;SDS011;31756;47.936;16.224;2023-06-10T04:28:31;651.20;;;595.60;;
46022;SDS011;31756;47.936;16.224;2023-06-10T04:30:57;650.43;;;594.97;;
46022;SDS011;31756;47.936;16.224;2023-06-10T04:33:23;658.30;;;602.70;;
46022;SDS011;31756;47.936;16.224;2023-06-10T04:35:50;651.47;;;595.90;;
46022;SDS011;31756;47.936;16.224;2023-06-10T04:38:17;663.77;;;607.43;;
46022;SDS011;31756;47.936;16.224;2023-06-10T04:40:43;706.33;;;648.00;;
46022;SDS011;31756;47.936;16.224;2023-06-10T04:43:11;666.77;;;609.57;;
46022;SDS011;31756;47.936;16.224;2023-06-10T04:45:36;644.00;;;588.53;;
46022;SDS011;31756;47.936;16.224;2023-06-10T04:48:02;683.87;;;621.00;;
46022;SDS011;31756;47.936;16.224;2023-06-10T04:50:28;633.07;;;577.80;;
46022;SDS011;31756;47.936;16.224;2023-06-10T04:52:54;677.20;;;617.47;;
46022;SDS011;31756;47.936;16.224;2023-06-10T04:55:22;658.07;;;601.60;;
46022;SDS011;31756;47.936;16.224;2023-06-10T04:57:48;663.67;;;607.20;;
46022;SDS011;31756;47.936;16.224;2023-06-10T05:00:14;642.83;;;587.40;;
46022;SDS011;31756;47.936;16.224;2023-06-10T05:02:39;652.13;;;596.73;;
46022;SDS011;31756;47.936;16.224;2023-06-10T05:05:05;666.67;;;610.77;;
46022;SDS011;31756;47.936;16.224;2023-06-10T05:07:31;675.10;;;618.73;;
46022;SDS011;31756;47.936;16.224;2023-06-10T05:09:57;678.03;;;621.47;;
46022;SDS011;31756;47.936;16.224;2023-06-10T05:12:22;684.63;;;628.07;;
46022;SDS011;31756;47.936;16.224;2023-06-10T05:14:48;712.23;;;655.03;;
46022;SDS011;31756;47.936;16.224;2023-06-10T05:17:14;703.93;;;646.97;;
46022;SDS011;31756;47.936;16.224;2023-06-10T05:19:40;715.43;;;658.07;;
46022;SDS011;31756;47.936;16.224;2023-06-10T05:22:06;707.60;;;650.57;;
46022;SDS011;31756;47.936;16.224;2023-06-10T05:24:32;705.53;;;648.13;;
46022;SDS011;31756;47.936;16.224;2023-06-10T05:26:57;709.93;;;652.73;;
46022;SDS011;31756;47.936;16.224;2023-06-10T05:29:23;716.17;;;658.83;;
46022;SDS011;31756;47.936;16.224;2023-06-10T05:31:48;732.17;;;674.47;;
46022;SDS011;31756;47.936;16.224;2023-06-10T05:34:13;726.07;;;668.27;;
46022;SDS011;31756;47.936;16.224;2023-06-10T05:36:39;730.17;;;672.50;;
46022;SDS011;31756;47.936;16.224;2023-06-10T05:39:04;724.53;;;666.77;;
46022;SDS011;31756;47.936;16.224;2023-06-10T05:41:30;730.23;;;672.53;;
46022;SDS011;31756;47.936;16.224;2023-06-10T05:43:56;734.37;;;676.40;;
46022;SDS011;31756;47.936;16.224;2023-06-10T05:46:21;729.07;;;671.53;;
46022;SDS011;31756;47.936;16.224;2023-06-10T05:48:47;727.93;;;670.53;;
46022;SDS011;31756;47.936;16.224;2023-06-10T05:51:12;744.90;;;687.13;;
46022;SDS011;31756;47.936;16.224;2023-06-10T05:53:37;758.77;;;700.37;;
46022;SDS011;31756;47.936;16.224;2023-06-10T05:56:03;726.30;;;669.07;;
46022;SDS011;31756;47.936;16.224;2023-06-10T05:58:29;733.57;;;675.63;;
46022;SDS011;31756;47.936;16.224;2023-06-10T06:00:54;727.73;;;670.20;;
46022;SDS011;31756;47.936;16.224;2023-06-10T06:03:20;723.63;;;666.33;;
46022;SDS011;31756;47.936;16.224;2023-06-10T06:05:45;733.33;;;675.97;;
46022;SDS011;31756;47.936;16.224;2023-06-10T06:08:11;754.37;;;696.37;;
46022;SDS011;31756;47.936;16.224;2023-06-10T06:10:38;763.70;;;705.50;;
46022;SDS011;31756;47.936;16.224;2023-06-10T06:13:04;768.80;;;710.53;;
46022;SDS011;31756;47.936;16.224;2023-06-10T06:15:29;770.47;;;711.93;;
46022;SDS011;31756;47.936;16.224;2023-06-10T06:17:55;769.80;;;711.17;;
46022;SDS011;31756;47.936;16.224;2023-06-10T06:20:21;777.20;;;718.53;;
46022;SDS011;31756;47.936;16.224;2023-06-10T06:22:46;787.33;;;728.37;;
46022;SDS011;31756;47.936;16.224;2023-06-10T06:25:12;783.23;;;724.37;;
46022;SDS011;31756;47.936;16.224;2023-06-10T06:27:37;780.23;;;721.50;;
46022;SDS011;31756;47.936;16.224;2023-06-10T06:30:03;796.70;;;737.53;;
46022;SDS011;31756;47.936;16.224;2023-06-10T06:32:29;778.60;;;719.77;;
46022;SDS011;31756;47.936;16.224;2023-06-10T06:34:54;792.47;;;733.33;;
46022;SDS011;31756;47.936;16.224;2023-06-10T06:37:23;795.93;;;736.30;;
46022;SDS011;31756;47.936;16.224;2023-06-10T06:39:53;791.47;;;732.47;;
46022;SDS011;31756;47.936;16.224;2023-06-10T06:42:20;809.53;;;749.77;;
46022;SDS011;31756;47.936;16.224;2023-06-10T06:45:02;796.93;;;737.63;;
46022;SDS011;31756;47.936;16.224;2023-06-10T06:47:28;788.37;;;729.30;;
46022;SDS011;31756;47.936;16.224;2023-06-10T06:49:53;790.47;;;731.37;;
46022;SDS011;31756;47.936;16.224;2023-06-10T06:52:19;784.13;;;725.17;;
46022;SDS011;31756;47.936;16.224;2023-06-10T06:54:44;780.77;;;722.10;;
46022;SDS011;31756;47.936;16.224;2023-06-10T06:57:10;785.40;;;726.53;;
46022;SDS011;31756;47.936;16.224;2023-06-10T06:59:36;791.60;;;732.33;;
46022;SDS011;31756;47.936;16.224;2023-06-10T07:02:02;798.00;;;738.77;;
46022;SDS011;31756;47.936;16.224;2023-06-10T07:04:28;799.90;;;740.43;;
46022;SDS011;31756;47.936;16.224;2023-06-10T07:06:54;802.33;;;742.87;;
46022;SDS011;31756;47.936;16.224;2023-06-10T07:09:19;801.90;;;742.23;;
46022;SDS011;31756;47.936;16.224;2023-06-10T07:11:44;804.83;;;745.47;;
46022;SDS011;31756;47.936;16.224;2023-06-10T07:14:10;806.50;;;746.80;;
46022;SDS011;31756;47.936;16.224;2023-06-10T07:16:36;806.30;;;746.60;;
46022;SDS011;31756;47.936;16.224;2023-06-10T07:19:01;814.90;;;755.10;;
46022;SDS011;31756;47.936;16.224;2023-06-10T07:21:27;821.80;;;761.87;;
46022;SDS011;31756;47.936;16.224;2023-06-10T07:23:54;821.37;;;761.37;;
46022;SDS011;31756;47.936;16.224;2023-06-10T07:26:21;810.80;;;750.77;;
46022;SDS011;31756;47.936;16.224;2023-06-10T07:28:47;805.23;;;745.60;;
46022;SDS011;31756;47.936;16.224;2023-06-10T07:31:12;804.20;;;744.53;;
46022;SDS011;31756;47.936;16.224;2023-06-10T07:33:37;806.00;;;746.23;;
46022;SDS011;31756;47.936;16.224;2023-06-10T07:36:06;807.53;;;747.47;;
46022;SDS011;31756;47.936;16.224;2023-06-10T07:38:32;804.67;;;744.77;;
46022;SDS011;31756;47.936;16.224;2023-06-10T07:40:58;810.50;;;750.53;;
46022;SDS011;31756;47.936;16.224;2023-06-10T07:43:23;806.77;;;747.10;;
46022;SDS011;31756;47.936;16.224;2023-06-10T07:45:49;820.50;;;760.23;;
46022;SDS011;31756;47.936;16.224;2023-06-10T07:48:15;814.27;;;754.47;;
46022;SDS011;31756;47.936;16.224;2023-06-10T07:50:40;836.63;;;775.90;;
46022;SDS011;31756;47.936;16.224;2023-06-10T07:53:06;829.13;;;768.47;;
46022;SDS011;31756;47.936;16.224;2023-06-10T07:55:32;831.10;;;770.70;;
46022;SDS011;31756;47.936;16.224;2023-06-10T07:57:57;828.30;;;768.00;;
46022;SDS011;31756;47.936;16.224;2023-06-10T08:00:23;832.67;;;771.73;;
46022;SDS011;31756;47.936;16.224;2023-06-10T08:02:48;821.87;;;761.70;;
46022;SDS011;31756;47.936;16.224;2023-06-10T08:05:14;826.17;;;765.73;;
46022;SDS011;31756;47.936;16.224;2023-06-10T08:07:39;827.63;;;767.33;;
46022;SDS011;31756;47.936;16.224;2023-06-10T08:10:05;841.20;;;780.30;;
46022;SDS011;31756;47.936;16.224;2023-06-10T08:12:31;838.60;;;778.07;;
46022;SDS011;31756;47.936;16.224;2023-06-10T08:14:57;845.87;;;785.13;;
46022;SDS011;31756;47.936;16.224;2023-06-10T08:17:22;846.63;;;785.30;;
46022;SDS011;31756;47.936;16.224;2023-06-10T08:19:48;851.90;;;790.93;;
46022;SDS011;31756;47.936;16.224;2023-06-10T08:22:14;856.73;;;795.23;;
46022;SDS011;31756;47.936;16.224;2023-06-10T08:24:40;859.93;;;798.37;;
46022;SDS011;31756;47.936;16.224;2023-06-10T08:27:05;852.70;;;791.23;;
46022;SDS011;31756;47.936;16.224;2023-06-10T08:29:31;857.63;;;796.07;;
46022;SDS011;31756;47.936;16.224;2023-06-10T08:31:57;854.47;;;792.70;;
46022;SDS011;31756;47.936;16.224;2023-06-10T08:34:23;859.43;;;797.77;;
46022;SDS011;31756;47.936;16.224;2023-06-10T08:36:48;855.87;;;794.60;;
46022;SDS011;31756;47.936;16.224;2023-06-10T08:39:18;862.30;;;800.90;;
46022;SDS011;31756;47.936;16.224;2023-06-10T08:41:47;861.27;;;800.10;;
46022;SDS011;31756;47.936;16.224;2023-06-10T08:46:43;855.00;;;793.77;;
46022;SDS011;31756;47.936;16.224;2023-06-10T08:49:10;851.23;;;789.47;;
46022;SDS011;31756;47.936;16.224;2023-06-10T08:51:36;861.33;;;800.20;;
46022;SDS011;31756;47.936;16.224;2023-06-10T08:54:04;857.77;;;796.03;;
46022;SDS011;31756;47.936;16.224;2023-06-10T08:56:30;857.20;;;796.07;;
46022;SDS011;31756;47.936;16.224;2023-06-10T08:58:59;853.60;;;792.60;;
46022;SDS011;31756;47.936;16.224;2023-06-10T09:01:25;845.40;;;784.63;;
46022;SDS011;31756;47.936;16.224;2023-06-10T09:03:51;848.83;;;788.17;;
46022;SDS011;31756;47.936;16.224;2023-06-10T09:06:16;846.07;;;785.37;;
46022;SDS011;31756;47.936;16.224;2023-06-10T09:08:43;844.67;;;783.97;;
46022;SDS011;31756;47.936;16.224;2023-06-10T09:11:08;850.13;;;789.07;;
46022;SDS011;31756;47.936;16.224;2023-06-10T09:13:34;844.53;;;782.97;;
46022;SDS011;31756;47.936;16.224;2023-06-10T09:15:59;820.87;;;760.87;;
46022;SDS011;31756;47.936;16.224;2023-06-10T09:18:27;830.67;;;770.50;;
46022;SDS011;31756;47.936;16.224;2023-06-10T09:20:53;829.07;;;768.47;;
46022;SDS011;31756;47.936;16.224;2023-06-10T09:23:18;829.63;;;769.50;;
46022;SDS011;31756;47.936;16.224;2023-06-10T09:25:44;828.40;;;768.37;;
46022;SDS011;31756;47.936;16.224;2023-06-10T09:28:13;820.77;;;761.07;;
46022;SDS011;31756;47.936;16.224;2023-06-10T09:30:39;832.37;;;772.03;;
46022;SDS011;31756;47.936;16.224;2023-06-10T09:33:14;820.63;;;760.87;;
46022;SDS011;31756;47.936;16.224;2023-06-10T09:35:46;821.63;;;761.67;;
46022;SDS011;31756;47.936;16.224;2023-06-10T09:38:12;809.33;;;749.73;;
46022;SDS011;31756;47.936;16.224;2023-06-10T09:40:48;822.70;;;762.50;;
46022;SDS011;31756;47.936;16.224;2023-06-10T09:43:14;814.33;;;754.73;;
46022;SDS011;31756;47.936;16.224;2023-06-10T09:45:39;814.03;;;754.37;;
46022;SDS011;31756;47.936;16.224;2023-06-10T09:48:05;803.03;;;743.70;;
46022;SDS011;31756;47.936;16.224;2023-06-10T09:50:32;807.67;;;748.30;;
46022;SDS011;31756;47.936;16.224;2023-06-10T09:52:58;807.43;;;747.73;;
46022;SDS011;31756;47.936;16.224;2023-06-10T09:55:23;821.17;;;760.87;;
46022;SDS011;31756;47.936;16.224;2023-06-10T09:57:49;830.37;;;769.87;;
46022;SDS011;31756;47.936;16.224;2023-06-10T10:00:15;814.67;;;754.97;;
46022;SDS011;31756;47.936;16.224;2023-06-10T10:02:50;820.23;;;760.43;;
46022;SDS011;31756;47.936;16.224;2023-06-10T10:05:17;824.53;;;764.50;;
46022;SDS011;31756;47.936;16.224;2023-06-10T10:07:43;822.80;;;763.00;;
46022;SDS011;31756;47.936;16.224;2023-06-10T10:10:09;825.80;;;765.60;;
46022;SDS011;31756;47.936;16.224;2023-06-10T10:12:36;832.63;;;772.63;;
46022;SDS011;31756;47.936;16.224;2023-06-10T10:15:02;831.20;;;771.17;;
46022;SDS011;31756;47.936;16.224;2023-06-10T10:17:28;833.13;;;772.87;;
46022;SDS011;31756;47.936;16.224;2023-06-10T10:19:57;830.40;;;770.20;;
46022;SDS011;31756;47.936;16.224;2023-06-10T10:22:29;837.20;;;776.90;;
46022;SDS011;31756;47.936;16.224;2023-06-10T10:24:57;831.87;;;771.87;;
46022;SDS011;31756;47.936;16.224;2023-06-10T10:27:27;848.57;;;787.90;;
46022;SDS011;31756;47.936;16.224;2023-06-10T10:29:53;849.00;;;788.17;;
46022;SDS011;31756;47.936;16.224;2023-06-10T10:32:21;854.37;;;793.27;;
46022;SDS011;31756;47.936;16.224;2023-06-10T10:34:58;853.83;;;792.93;;
46022;SDS011;31756;47.936;16.224;2023-06-10T10:37:30;863.90;;;802.63;;
46022;SDS011;31756;47.936;16.224;2023-06-10T10:39:56;879.43;;;817.60;;
46022;SDS011;31756;47.936;16.224;2023-06-10T10:42:22;888.63;;;826.30;;
46022;SDS011;31756;47.936;16.224;2023-06-10T10:44:47;896.60;;;833.83;;
46022;SDS011;31756;47.936;16.224;2023-06-10T10:47:14;884.53;;;822.73;;
46022;SDS011;31756;47.936;16.224;2023-06-10T10:49:40;891.77;;;829.33;;
46022;SDS011;31756;47.936;16.224;2023-06-10T10:52:11;884.53;;;822.50;;
46022;SDS011;31756;47.936;16.224;2023-06-10T10:54:36;884.67;;;822.93;;
46022;SDS011;31756;47.936;16.224;2023-06-10T10:59:58;928.60;;;864.63;;
46022;SDS011;31756;47.936;16.224;2023-06-10T11:02:34;924.73;;;860.87;;
46022;SDS011;31756;47.936;16.224;2023-06-10T11:05:01;926.53;;;862.43;;
46022;SDS011;31756;47.936;16.224;2023-06-10T11:07:26;921.13;;;857.67;;
46022;SDS011;31756;47.936;16.224;2023-06-10T11:10:08;912.50;;;849.63;;
46022;SDS011;31756;47.936;16.224;2023-06-10T11:12:40;901.23;;;838.63;;
46022;SDS011;31756;47.936;16.224;2023-06-10T11:15:05;897.80;;;835.03;;
46022;SDS011;31756;47.936;16.224;2023-06-10T11:17:31;907.00;;;843.53;;
46022;SDS011;31756;47.936;16.224;2023-06-10T11:19:56;915.50;;;849.17;;
46022;SDS011;31756;47.936;16.224;2023-06-10T11:22:23;942.33;;;864.63;;
46022;SDS011;31756;47.936;16.224;2023-06-10T11:24:51;939.87;;;873.57;;
46022;SDS011;31756;47.936;16.224;2023-06-10T11:27:20;945.33;;;881.03;;
46022;SDS011;31756;47.936;16.224;2023-06-10T11:32:32;956.83;;;892.20;;
46022;SDS011;31756;47.936;16.224;2023-06-10T11:34:57;972.00;;;906.10;;
46022;SDS011;31756;47.936;16.224;2023-06-10T11:37:23;974.30;;;908.83;;
46022;SDS011;31756;47.936;16.224;2023-06-10T11:39:52;983.30;;;917.07;;
46022;SDS011;31756;47.936;16.224;2023-06-10T11:42:19;988.23;;;921.83;;
46022;SDS011;31756;47.936;16.224;2023-06-10T11:44:51;1006.53;;;939.13;;
46022;SDS011;31756;47.936;16.224;2023-06-10T11:47:20;1002.77;;;936.17;;
46022;SDS011;31756;47.936;16.224;2023-06-10T11:49:55;1008.97;;;941.70;;
46022;SDS011;31756;47.936;16.224;2023-06-10T11:52:28;1013.65;;;946.28;;
46022;SDS011;31756;47.936;16.224;2023-06-10T11:54:54;1001.80;;;935.00;;
46022;SDS011;31756;47.936;16.224;2023-06-10T11:57:20;1003.23;;;936.13;;
46022;SDS011;31756;47.936;16.224;2023-06-10T11:59:45;1000.20;;;933.33;;
46022;SDS011;31756;47.936;16.224;2023-06-10T12:02:17;989.17;;;922.97;;
46022;SDS011;31756;47.936;16.224;2023-06-10T12:04:44;986.90;;;920.93;;
46022;SDS011;31756;47.936;16.224;2023-06-10T12:07:16;987.13;;;920.83;;
46022;SDS011;31756;47.936;16.224;2023-06-10T12:09:42;984.33;;;918.00;;
46022;SDS011;31756;47.936;16.224;2023-06-10T12:12:07;982.87;;;916.63;;
46022;SDS011;31756;47.936;16.224;2023-06-10T12:19:55;983.23;;;917.10;;
46022;SDS011;31756;47.936;16.224;2023-06-10T12:22:21;981.67;;;915.80;;
46022;SDS011;31756;47.936;16.224;2023-06-10T12:25:02;988.97;;;922.77;;
46022;SDS011;31756;47.936;16.224;2023-06-10T12:27:29;986.27;;;920.20;;
46022;SDS011;31756;47.936;16.224;2023-06-10T12:29:55;997.00;;;930.40;;
46022;SDS011;31756;47.936;16.224;2023-06-10T12:32:35;994.27;;;927.77;;
46022;SDS011;31756;47.936;16.224;2023-06-10T12:35:04;970.47;;;905.53;;
46022;SDS011;31756;47.936;16.224;2023-06-10T12:37:30;964.17;;;899.57;;
46022;SDS011;31756;47.936;16.224;2023-06-10T12:39:59;961.30;;;896.77;;
46022;SDS011;31756;47.936;16.224;2023-06-10T12:42:25;968.47;;;903.77;;
46022;SDS011;31756;47.936;16.224;2023-06-10T12:44:53;958.90;;;894.47;;
46022;SDS011;31756;47.936;16.224;2023-06-10T12:47:18;968.67;;;903.73;;
46022;SDS011;31756;47.936;16.224;2023-06-10T12:49:44;967.73;;;903.23;;
46022;SDS011;31756;47.936;16.224;2023-06-10T12:52:09;980.23;;;914.90;;
46022;SDS011;31756;47.936;16.224;2023-06-10T12:54:35;979.13;;;914.07;;
46022;SDS011;31756;47.936;16.224;2023-06-10T12:57:00;995.20;;;928.57;;
46022;SDS011;31756;47.936;16.224;2023-06-10T12:59:26;998.23;;;931.90;;
46022;SDS011;31756;47.936;16.224;2023-06-10T13:01:52;998.83;;;932.83;;
46022;SDS011;31756;47.936;16.224;2023-06-10T13:04:18;1006.43;;;939.83;;
46022;SDS011;31756;47.936;16.224;2023-06-10T13:06:44;994.10;;;928.20;;
46022;SDS011;31756;47.936;16.224;2023-06-10T13:09:12;1004.03;;;937.33;;
46022;SDS011;31756;47.936;16.224;2023-06-10T13:11:37;985.63;;;920.13;;
46022;SDS011;31756;47.936;16.224;2023-06-10T13:14:04;982.97;;;917.63;;
46022;SDS011;31756;47.936;16.224;2023-06-10T13:16:30;976.33;;;911.27;;
46022;SDS011;31756;47.936;16.224;2023-06-10T13:18:55;970.53;;;905.97;;
46022;SDS011;31756;47.936;16.224;2023-06-10T13:21:21;983.70;;;917.97;;
46022;SDS011;31756;47.936;16.224;2023-06-10T13:23:46;969.97;;;904.97;;
46022;SDS011;31756;47.936;16.224;2023-06-10T13:26:16;972.67;;;907.53;;
46022;SDS011;31756;47.936;16.224;2023-06-10T13:28:45;980.17;;;914.57;;
46022;SDS011;31756;47.936;16.224;2023-06-10T13:31:10;983.40;;;917.90;;
46022;SDS011;31756;47.936;16.224;2023-06-10T13:33:36;977.20;;;911.50;;
46022;SDS011;31756;47.936;16.224;2023-06-10T13:36:01;980.83;;;915.13;;
46022;SDS011;31756;47.936;16.224;2023-06-10T13:38:27;978.87;;;913.40;;
46022;SDS011;31756;47.936;16.224;2023-06-10T13:40:52;964.50;;;899.70;;
46022;SDS011;31756;47.936;16.224;2023-06-10T13:43:18;967.77;;;903.07;;
46022;SDS011;31756;47.936;16.224;2023-06-10T13:45:43;962.80;;;897.67;;
46022;SDS011;31756;47.936;16.224;2023-06-10T13:48:09;954.80;;;890.23;;
46022;SDS011;31756;47.936;16.224;2023-06-10T13:50:34;956.27;;;891.67;;
46022;SDS011;31756;47.936;16.224;2023-06-10T13:53:00;948.67;;;884.17;;
46022;SDS011;31756;47.936;16.224;2023-06-10T13:55:25;941.03;;;876.37;;
46022;SDS011;31756;47.936;16.224;2023-06-10T13:57:51;923.30;;;859.47;;
46022;SDS011;31756;47.936;16.224;2023-06-10T14:00:16;918.77;;;854.93;;
46022;SDS011;31756;47.936;16.224;2023-06-10T14:02:42;888.13;;;825.47;;